This is the latest recevied weather packets stored in our database for station/object 9M4RBN-3. If no packets are shown the sender has not sent any weather packets the latest 10 day(s).
| Time | Temp. | Humidity | Pressure | Rain* | Wind** | Luminosity | Snow |
|---|---|---|---|---|---|---|---|
| 1777943200 | 26.67° C | 66% | 1015.7 hPa | - | - | - | - |
| 1777942300 | 26.11° C | 65% | 1015.4 hPa | - | - | - | - |
| 1777941400 | 26.11° C | 64% | 1015.1 hPa | - | - | - | - |
| 1777940500 | 25.56° C | 62% | 1015.2 hPa | - | - | - | - |
| 1777939600 | 25.56° C | 65% | 1015 hPa | - | - | - | - |
| 1777938699 | 25° C | 64% | 1015 hPa | - | - | - | - |
| 1777937799 | 24.44° C | 51% | 1014.9 hPa | - | - | - | - |
| 1777936899 | 24.44° C | 46% | 1014.8 hPa | - | - | - | - |
| 1777935999 | 25° C | 51% | 1014.8 hPa | - | - | - | - |
| 1777935099 | 25.56° C | 65% | 1014.7 hPa | - | - | - | - |
| 1777934199 | 25° C | 63% | 1014.4 hPa | - | - | - | - |
| 1777933299 | 24.44° C | 54% | 1014.3 hPa | - | - | - | - |
| 1777932399 | 24.44° C | 44% | 1014.1 hPa | - | - | - | - |
| 1777931499 | 24.44° C | 44% | 1014 hPa | - | - | - | - |
| 1777930599 | 25° C | 43% | 1013.8 hPa | - | - | - | - |
| 1777929699 | 25° C | 43% | 1013.9 hPa | - | - | - | - |
| 1777928799 | 25.56° C | 42% | 1014.2 hPa | - | - | - | - |
| 1777927899 | 26.11° C | 44% | 1014 hPa | - | - | - | - |
| 1777926999 | 26.67° C | 48% | 1014.2 hPa | - | - | - | - |
| 1777926099 | 27.22° C | 57% | 1014.2 hPa | - | - | - | - |
| 1777925199 | 27.78° C | 67% | 1014.1 hPa | - | - | - | - |
| 1777924299 | 27.78° C | 67% | 1014 hPa | - | - | - | - |
| 1777923398 | 27.78° C | 67% | 1014.2 hPa | - | - | - | - |
| 1777922498 | 27.78° C | 66% | 1014.4 hPa | - | - | - | - |
| 1777921598 | 27.78° C | 66% | 1014.5 hPa | - | - | - | - |
* Rain since midnight (hover to see other rain measurements)
** Current wind speed in m/s (hover to see current wind gust speed)